sensor_id;sensor_type;location;lat;lon;timestamp;temperature;humidity
20560;DHT22;10438;51.454;6.718;2023-08-08T00:02:05;14.30;99.90
20560;DHT22;10438;51.454;6.718;2023-08-08T00:04:31;14.20;99.90
20560;DHT22;10438;51.454;6.718;2023-08-08T00:06:57;14.20;99.90
20560;DHT22;10438;51.454;6.718;2023-08-08T00:09:22;14.20;99.90
20560;DHT22;10438;51.454;6.718;2023-08-08T00:11:48;14.20;99.90
20560;DHT22;10438;51.454;6.718;2023-08-08T00:14:14;14.20;99.90
20560;DHT22;10438;51.454;6.718;2023-08-08T00:16:39;14.20;99.90
20560;DHT22;10438;51.454;6.718;2023-08-08T00:19:05;14.20;99.90
20560;DHT22;10438;51.454;6.718;2023-08-08T00:21:31;14.20;99.90
20560;DHT22;10438;51.454;6.718;2023-08-08T00:23:56;14.10;99.90
20560;DHT22;10438;51.454;6.718;2023-08-08T00:26:22;14.10;99.90
20560;DHT22;10438;51.454;6.718;2023-08-08T00:28:47;14.10;99.90
20560;DHT22;10438;51.454;6.718;2023-08-08T00:31:13;14.10;99.90
20560;DHT22;10438;51.454;6.718;2023-08-08T00:33:42;14.00;99.90
20560;DHT22;10438;51.454;6.718;2023-08-08T00:36:07;14.00;99.90
20560;DHT22;10438;51.454;6.718;2023-08-08T00:38:33;14.00;99.90
20560;DHT22;10438;51.454;6.718;2023-08-08T00:40:59;14.00;99.90
20560;DHT22;10438;51.454;6.718;2023-08-08T00:43:24;14.00;99.90
20560;DHT22;10438;51.454;6.718;2023-08-08T00:45:50;14.00;99.90
20560;DHT22;10438;51.454;6.718;2023-08-08T00:48:15;14.00;99.90
20560;DHT22;10438;51.454;6.718;2023-08-08T00:50:43;14.10;99.90
20560;DHT22;10438;51.454;6.718;2023-08-08T00:53:09;14.00;99.90
20560;DHT22;10438;51.454;6.718;2023-08-08T00:55:35;14.10;99.90
20560;DHT22;10438;51.454;6.718;2023-08-08T00:58:01;14.10;99.90
20560;DHT22;10438;51.454;6.718;2023-08-08T01:00:26;14.10;99.90
20560;DHT22;10438;51.454;6.718;2023-08-08T01:02:52;14.10;99.90
20560;DHT22;10438;51.454;6.718;2023-08-08T01:05:17;14.10;99.90
20560;DHT22;10438;51.454;6.718;2023-08-08T01:07:58;14.00;99.90
20560;DHT22;10438;51.454;6.718;2023-08-08T01:10:28;14.00;99.90
20560;DHT22;10438;51.454;6.718;2023-08-08T01:12:59;14.00;99.90
20560;DHT22;10438;51.454;6.718;2023-08-08T01:15:26;14.00;99.90
20560;DHT22;10438;51.454;6.718;2023-08-08T01:17:52;14.00;99.90
20560;DHT22;10438;51.454;6.718;2023-08-08T01:20:19;14.00;99.90
20560;DHT22;10438;51.454;6.718;2023-08-08T01:23:13;13.90;99.90
20560;DHT22;10438;51.454;6.718;2023-08-08T01:25:40;13.80;99.90
20560;DHT22;10438;51.454;6.718;2023-08-08T01:28:07;13.80;99.90
20560;DHT22;10438;51.454;6.718;2023-08-08T01:30:33;13.70;99.90
20560;DHT22;10438;51.454;6.718;2023-08-08T01:32:59;13.70;99.90
20560;DHT22;10438;51.454;6.718;2023-08-08T01:35:35;13.70;99.90
20560;DHT22;10438;51.454;6.718;2023-08-08T01:38:20;13.70;99.90
20560;DHT22;10438;51.454;6.718;2023-08-08T01:40:47;13.70;99.90
20560;DHT22;10438;51.454;6.718;2023-08-08T01:43:15;13.80;99.90
20560;DHT22;10438;51.454;6.718;2023-08-08T01:45:41;13.80;99.90
20560;DHT22;10438;51.454;6.718;2023-08-08T01:48:08;13.80;99.90
20560;DHT22;10438;51.454;6.718;2023-08-08T01:50:34;13.80;99.90
20560;DHT22;10438;51.454;6.718;2023-08-08T01:53:00;13.80;99.90
20560;DHT22;10438;51.454;6.718;2023-08-08T01:55:26;13.80;99.90
20560;DHT22;10438;51.454;6.718;2023-08-08T01:57:51;13.80;99.90
20560;DHT22;10438;51.454;6.718;2023-08-08T02:00:17;13.80;99.90
20560;DHT22;10438;51.454;6.718;2023-08-08T02:02:42;13.80;99.90
20560;DHT22;10438;51.454;6.718;2023-08-08T02:05:08;13.80;99.90
20560;DHT22;10438;51.454;6.718;2023-08-08T02:07:33;13.80;99.90
20560;DHT22;10438;51.454;6.718;2023-08-08T02:09:59;13.80;99.90
20560;DHT22;10438;51.454;6.718;2023-08-08T02:12:24;13.80;99.90
20560;DHT22;10438;51.454;6.718;2023-08-08T02:14:50;13.80;99.90
20560;DHT22;10438;51.454;6.718;2023-08-08T02:17:16;13.80;99.90
20560;DHT22;10438;51.454;6.718;2023-08-08T02:19:41;13.80;99.90
20560;DHT22;10438;51.454;6.718;2023-08-08T02:22:07;13.80;99.90
20560;DHT22;10438;51.454;6.718;2023-08-08T02:24:32;13.80;99.90
20560;DHT22;10438;51.454;6.718;2023-08-08T02:26:58;13.90;99.90
20560;DHT22;10438;51.454;6.718;2023-08-08T02:29:24;13.90;99.90
20560;DHT22;10438;51.454;6.718;2023-08-08T02:31:49;13.90;99.90
20560;DHT22;10438;51.454;6.718;2023-08-08T02:34:15;13.90;99.90
20560;DHT22;10438;51.454;6.718;2023-08-08T02:36:40;13.90;99.90
20560;DHT22;10438;51.454;6.718;2023-08-08T02:39:06;14.00;99.90
20560;DHT22;10438;51.454;6.718;2023-08-08T02:41:31;13.90;99.90
20560;DHT22;10438;51.454;6.718;2023-08-08T02:43:57;13.90;99.90
20560;DHT22;10438;51.454;6.718;2023-08-08T02:46:22;13.90;99.90
20560;DHT22;10438;51.454;6.718;2023-08-08T02:48:48;13.90;99.90
20560;DHT22;10438;51.454;6.718;2023-08-08T02:51:13;13.90;99.90
20560;DHT22;10438;51.454;6.718;2023-08-08T02:53:39;13.80;99.90
20560;DHT22;10438;51.454;6.718;2023-08-08T02:56:04;13.80;99.90
20560;DHT22;10438;51.454;6.718;2023-08-08T02:58:30;13.70;99.90
20560;DHT22;10438;51.454;6.718;2023-08-08T03:00:55;13.70;99.90
20560;DHT22;10438;51.454;6.718;2023-08-08T03:03:21;13.70;99.90
20560;DHT22;10438;51.454;6.718;2023-08-08T03:05:46;13.70;99.90
20560;DHT22;10438;51.454;6.718;2023-08-08T03:08:12;13.60;99.90
20560;DHT22;10438;51.454;6.718;2023-08-08T03:10:38;13.60;99.90
20560;DHT22;10438;51.454;6.718;2023-08-08T03:13:03;13.60;99.90
20560;DHT22;10438;51.454;6.718;2023-08-08T03:15:29;13.60;99.90
20560;DHT22;10438;51.454;6.718;2023-08-08T03:17:54;13.60;99.90
20560;DHT22;10438;51.454;6.718;2023-08-08T03:20:21;13.50;99.90
20560;DHT22;10438;51.454;6.718;2023-08-08T03:22:46;13.40;99.90
20560;DHT22;10438;51.454;6.718;2023-08-08T03:25:12;13.30;99.90
20560;DHT22;10438;51.454;6.718;2023-08-08T03:27:37;13.20;99.90
20560;DHT22;10438;51.454;6.718;2023-08-08T03:30:03;13.20;99.90
20560;DHT22;10438;51.454;6.718;2023-08-08T03:32:29;13.10;99.90
20560;DHT22;10438;51.454;6.718;2023-08-08T03:34:55;13.10;99.90
20560;DHT22;10438;51.454;6.718;2023-08-08T03:37:20;13.00;99.90
20560;DHT22;10438;51.454;6.718;2023-08-08T03:39:46;13.00;99.90
20560;DHT22;10438;51.454;6.718;2023-08-08T03:42:11;13.00;99.90
20560;DHT22;10438;51.454;6.718;2023-08-08T03:44:37;12.90;99.90
20560;DHT22;10438;51.454;6.718;2023-08-08T03:47:02;12.90;99.90
20560;DHT22;10438;51.454;6.718;2023-08-08T03:49:28;12.90;99.90
20560;DHT22;10438;51.454;6.718;2023-08-08T03:51:54;12.90;99.90
20560;DHT22;10438;51.454;6.718;2023-08-08T03:54:19;12.90;99.90
20560;DHT22;10438;51.454;6.718;2023-08-08T03:56:45;12.90;99.90
20560;DHT22;10438;51.454;6.718;2023-08-08T03:59:10;12.90;99.90
20560;DHT22;10438;51.454;6.718;2023-08-08T04:01:36;13.00;99.90
20560;DHT22;10438;51.454;6.718;2023-08-08T04:04:03;12.90;99.90
20560;DHT22;10438;51.454;6.718;2023-08-08T04:06:29;12.90;99.90
20560;DHT22;10438;51.454;6.718;2023-08-08T04:08:55;12.90;99.90
20560;DHT22;10438;51.454;6.718;2023-08-08T04:11:20;12.90;99.90
20560;DHT22;10438;51.454;6.718;2023-08-08T04:13:46;12.90;99.90
20560;DHT22;10438;51.454;6.718;2023-08-08T04:16:11;12.90;99.90
20560;DHT22;10438;51.454;6.718;2023-08-08T04:18:37;13.00;99.90
20560;DHT22;10438;51.454;6.718;2023-08-08T04:21:02;12.90;99.90
20560;DHT22;10438;51.454;6.718;2023-08-08T04:23:29;13.00;99.90
20560;DHT22;10438;51.454;6.718;2023-08-08T04:25:54;13.00;99.90
20560;DHT22;10438;51.454;6.718;2023-08-08T04:28:20;13.00;99.90
20560;DHT22;10438;51.454;6.718;2023-08-08T04:30:46;13.00;99.90
20560;DHT22;10438;51.454;6.718;2023-08-08T04:33:11;13.00;99.90
20560;DHT22;10438;51.454;6.718;2023-08-08T04:35:37;13.00;99.90
20560;DHT22;10438;51.454;6.718;2023-08-08T04:38:03;13.00;99.90
20560;DHT22;10438;51.454;6.718;2023-08-08T04:40:28;13.00;99.90
20560;DHT22;10438;51.454;6.718;2023-08-08T04:42:54;13.00;99.90
20560;DHT22;10438;51.454;6.718;2023-08-08T04:45:19;13.10;99.90
20560;DHT22;10438;51.454;6.718;2023-08-08T04:47:46;13.00;99.90
20560;DHT22;10438;51.454;6.718;2023-08-08T04:50:12;13.10;99.90
20560;DHT22;10438;51.454;6.718;2023-08-08T04:52:37;13.10;99.90
20560;DHT22;10438;51.454;6.718;2023-08-08T04:55:03;13.10;99.90
20560;DHT22;10438;51.454;6.718;2023-08-08T04:57:29;13.10;99.90
20560;DHT22;10438;51.454;6.718;2023-08-08T04:59:54;13.10;99.90
20560;DHT22;10438;51.454;6.718;2023-08-08T05:02:20;13.20;99.90
20560;DHT22;10438;51.454;6.718;2023-08-08T05:04:45;13.20;99.90
20560;DHT22;10438;51.454;6.718;2023-08-08T05:07:11;13.20;99.90
20560;DHT22;10438;51.454;6.718;2023-08-08T05:09:36;13.30;99.90
20560;DHT22;10438;51.454;6.718;2023-08-08T05:12:02;13.30;99.90
20560;DHT22;10438;51.454;6.718;2023-08-08T05:14:28;13.30;99.90
20560;DHT22;10438;51.454;6.718;2023-08-08T05:16:53;13.30;99.90
20560;DHT22;10438;51.454;6.718;2023-08-08T05:19:19;13.30;99.90
20560;DHT22;10438;51.454;6.718;2023-08-08T05:21:44;13.40;99.90
20560;DHT22;10438;51.454;6.718;2023-08-08T05:24:10;13.40;99.90
20560;DHT22;10438;51.454;6.718;2023-08-08T05:26:35;13.40;99.90
20560;DHT22;10438;51.454;6.718;2023-08-08T05:29:01;13.50;99.90
20560;DHT22;10438;51.454;6.718;2023-08-08T05:31:26;13.50;99.90
20560;DHT22;10438;51.454;6.718;2023-08-08T05:33:52;13.50;99.90
20560;DHT22;10438;51.454;6.718;2023-08-08T05:36:18;13.60;99.90
20560;DHT22;10438;51.454;6.718;2023-08-08T05:38:43;13.60;99.90
20560;DHT22;10438;51.454;6.718;2023-08-08T05:41:09;13.60;99.90
20560;DHT22;10438;51.454;6.718;2023-08-08T05:43:34;13.60;99.90
20560;DHT22;10438;51.454;6.718;2023-08-08T05:46:00;13.70;99.90
20560;DHT22;10438;51.454;6.718;2023-08-08T05:48:26;13.70;99.90
20560;DHT22;10438;51.454;6.718;2023-08-08T05:50:51;13.80;99.90
20560;DHT22;10438;51.454;6.718;2023-08-08T05:53:17;13.80;99.90
20560;DHT22;10438;51.454;6.718;2023-08-08T05:55:43;13.80;99.90
20560;DHT22;10438;51.454;6.718;2023-08-08T05:58:09;13.80;99.90
20560;DHT22;10438;51.454;6.718;2023-08-08T06:00:34;13.90;99.90
20560;DHT22;10438;51.454;6.718;2023-08-08T06:03:00;13.80;99.90
20560;DHT22;10438;51.454;6.718;2023-08-08T06:05:26;13.80;99.90
20560;DHT22;10438;51.454;6.718;2023-08-08T06:07:51;13.90;99.90
20560;DHT22;10438;51.454;6.718;2023-08-08T06:10:17;13.90;99.90
20560;DHT22;10438;51.454;6.718;2023-08-08T06:12:42;14.00;99.90
20560;DHT22;10438;51.454;6.718;2023-08-08T06:15:08;14.00;99.90
20560;DHT22;10438;51.454;6.718;2023-08-08T06:17:34;14.00;99.90
20560;DHT22;10438;51.454;6.718;2023-08-08T06:19:59;14.10;99.90
20560;DHT22;10438;51.454;6.718;2023-08-08T06:22:25;14.10;99.90
20560;DHT22;10438;51.454;6.718;2023-08-08T06:24:51;14.20;99.90
20560;DHT22;10438;51.454;6.718;2023-08-08T06:27:17;14.30;99.90
20560;DHT22;10438;51.454;6.718;2023-08-08T06:29:43;14.30;99.90
20560;DHT22;10438;51.454;6.718;2023-08-08T06:32:08;14.50;99.90
20560;DHT22;10438;51.454;6.718;2023-08-08T06:34:34;14.50;99.90
20560;DHT22;10438;51.454;6.718;2023-08-08T06:36:59;14.60;99.90
20560;DHT22;10438;51.454;6.718;2023-08-08T06:39:25;14.50;99.90
20560;DHT22;10438;51.454;6.718;2023-08-08T06:41:51;14.50;99.90
20560;DHT22;10438;51.454;6.718;2023-08-08T06:44:16;14.50;99.90
20560;DHT22;10438;51.454;6.718;2023-08-08T06:46:42;14.50;99.90
20560;DHT22;10438;51.454;6.718;2023-08-08T06:49:07;14.60;99.90
20560;DHT22;10438;51.454;6.718;2023-08-08T06:51:34;14.50;99.90
20560;DHT22;10438;51.454;6.718;2023-08-08T06:53:59;14.50;99.90
20560;DHT22;10438;51.454;6.718;2023-08-08T06:56:25;14.50;99.90
20560;DHT22;10438;51.454;6.718;2023-08-08T06:58:53;14.60;99.90
20560;DHT22;10438;51.454;6.718;2023-08-08T07:01:19;14.70;99.90
20560;DHT22;10438;51.454;6.718;2023-08-08T07:03:45;14.80;99.90
20560;DHT22;10438;51.454;6.718;2023-08-08T07:06:12;14.90;99.90
20560;DHT22;10438;51.454;6.718;2023-08-08T07:08:37;15.00;99.90
20560;DHT22;10438;51.454;6.718;2023-08-08T07:11:05;15.10;99.90
20560;DHT22;10438;51.454;6.718;2023-08-08T07:13:31;15.20;99.90
20560;DHT22;10438;51.454;6.718;2023-08-08T07:15:57;15.20;99.90
20560;DHT22;10438;51.454;6.718;2023-08-08T07:18:23;15.30;99.90
20560;DHT22;10438;51.454;6.718;2023-08-08T07:20:48;15.40;99.90
20560;DHT22;10438;51.454;6.718;2023-08-08T07:23:15;15.50;99.90
20560;DHT22;10438;51.454;6.718;2023-08-08T07:25:41;15.60;99.90
20560;DHT22;10438;51.454;6.718;2023-08-08T07:28:07;15.60;99.90
20560;DHT22;10438;51.454;6.718;2023-08-08T07:30:33;15.60;99.90
20560;DHT22;10438;51.454;6.718;2023-08-08T07:32:58;15.60;99.90
20560;DHT22;10438;51.454;6.718;2023-08-08T07:35:24;15.60;99.90
20560;DHT22;10438;51.454;6.718;2023-08-08T07:37:49;15.60;99.90
20560;DHT22;10438;51.454;6.718;2023-08-08T07:40:16;15.70;99.90
20560;DHT22;10438;51.454;6.718;2023-08-08T07:42:43;15.80;99.90
20560;DHT22;10438;51.454;6.718;2023-08-08T07:45:09;15.80;99.90
20560;DHT22;10438;51.454;6.718;2023-08-08T07:47:34;15.90;99.90
20560;DHT22;10438;51.454;6.718;2023-08-08T07:50:00;16.10;99.90
20560;DHT22;10438;51.454;6.718;2023-08-08T07:52:26;16.20;99.90
20560;DHT22;10438;51.454;6.718;2023-08-08T07:54:51;16.30;99.90
20560;DHT22;10438;51.454;6.718;2023-08-08T07:57:17;16.40;99.90
20560;DHT22;10438;51.454;6.718;2023-08-08T07:59:42;16.30;99.90
20560;DHT22;10438;51.454;6.718;2023-08-08T08:02:08;16.30;99.90
20560;DHT22;10438;51.454;6.718;2023-08-08T08:04:34;16.40;99.90
20560;DHT22;10438;51.454;6.718;2023-08-08T08:07:00;16.50;99.90
20560;DHT22;10438;51.454;6.718;2023-08-08T08:09:25;16.50;99.90
20560;DHT22;10438;51.454;6.718;2023-08-08T08:11:51;16.50;99.90
20560;DHT22;10438;51.454;6.718;2023-08-08T08:14:16;16.60;99.90
20560;DHT22;10438;51.454;6.718;2023-08-08T08:16:42;16.70;99.90
20560;DHT22;10438;51.454;6.718;2023-08-08T08:19:07;16.80;99.90
20560;DHT22;10438;51.454;6.718;2023-08-08T08:21:33;16.70;99.90
20560;DHT22;10438;51.454;6.718;2023-08-08T08:23:59;16.70;99.90
20560;DHT22;10438;51.454;6.718;2023-08-08T08:26:25;16.90;99.90
20560;DHT22;10438;51.454;6.718;2023-08-08T08:28:50;16.90;99.90
20560;DHT22;10438;51.454;6.718;2023-08-08T08:31:16;17.10;99.90
20560;DHT22;10438;51.454;6.718;2023-08-08T08:33:41;17.20;99.90
20560;DHT22;10438;51.454;6.718;2023-08-08T08:36:07;17.30;99.90
20560;DHT22;10438;51.454;6.718;2023-08-08T08:38:32;17.30;99.90
20560;DHT22;10438;51.454;6.718;2023-08-08T08:40:58;17.20;99.90
20560;DHT22;10438;51.454;6.718;2023-08-08T08:43:24;17.20;99.90
20560;DHT22;10438;51.454;6.718;2023-08-08T08:45:52;17.20;99.90
20560;DHT22;10438;51.454;6.718;2023-08-08T08:48:18;17.40;99.90
20560;DHT22;10438;51.454;6.718;2023-08-08T08:50:47;17.60;99.90
20560;DHT22;10438;51.454;6.718;2023-08-08T08:53:13;17.70;99.90
20560;DHT22;10438;51.454;6.718;2023-08-08T08:55:40;17.90;99.90
20560;DHT22;10438;51.454;6.718;2023-08-08T08:58:06;18.00;99.90
20560;DHT22;10438;51.454;6.718;2023-08-08T09:00:32;17.90;99.90
20560;DHT22;10438;51.454;6.718;2023-08-08T09:02:59;18.10;99.90
20560;DHT22;10438;51.454;6.718;2023-08-08T09:05:26;18.00;99.90
20560;DHT22;10438;51.454;6.718;2023-08-08T09:07:51;17.80;99.90
20560;DHT22;10438;51.454;6.718;2023-08-08T09:10:18;17.90;99.90
20560;DHT22;10438;51.454;6.718;2023-08-08T09:12:44;17.90;99.90
20560;DHT22;10438;51.454;6.718;2023-08-08T09:15:11;18.00;99.90
20560;DHT22;10438;51.454;6.718;2023-08-08T09:17:40;18.00;99.90
20560;DHT22;10438;51.454;6.718;2023-08-08T09:20:07;18.20;99.90
20560;DHT22;10438;51.454;6.718;2023-08-08T09:22:33;18.20;99.90
20560;DHT22;10438;51.454;6.718;2023-08-08T09:24:59;18.30;99.90
20560;DHT22;10438;51.454;6.718;2023-08-08T09:27:24;18.30;99.90
20560;DHT22;10438;51.454;6.718;2023-08-08T09:29:50;18.30;99.90
20560;DHT22;10438;51.454;6.718;2023-08-08T09:32:15;18.10;99.90
20560;DHT22;10438;51.454;6.718;2023-08-08T09:34:43;18.20;99.90
20560;DHT22;10438;51.454;6.718;2023-08-08T09:37:09;18.30;99.90
20560;DHT22;10438;51.454;6.718;2023-08-08T09:39:36;18.50;99.90
20560;DHT22;10438;51.454;6.718;2023-08-08T09:42:02;18.60;99.90
20560;DHT22;10438;51.454;6.718;2023-08-08T09:44:29;18.50;99.90
20560;DHT22;10438;51.454;6.718;2023-08-08T09:46:55;18.70;99.90
20560;DHT22;10438;51.454;6.718;2023-08-08T09:49:22;18.80;99.90
20560;DHT22;10438;51.454;6.718;2023-08-08T09:51:48;18.90;99.90
20560;DHT22;10438;51.454;6.718;2023-08-08T09:54:15;18.90;99.90
20560;DHT22;10438;51.454;6.718;2023-08-08T09:56:42;18.90;99.90
20560;DHT22;10438;51.454;6.718;2023-08-08T09:59:09;18.70;99.90
20560;DHT22;10438;51.454;6.718;2023-08-08T10:01:34;18.40;99.90
20560;DHT22;10438;51.454;6.718;2023-08-08T10:04:03;18.40;99.90
20560;DHT22;10438;51.454;6.718;2023-08-08T10:06:28;18.40;99.90
20560;DHT22;10438;51.454;6.718;2023-08-08T10:08:55;18.60;99.90
20560;DHT22;10438;51.454;6.718;2023-08-08T10:11:22;18.70;99.90
20560;DHT22;10438;51.454;6.718;2023-08-08T10:13:50;18.60;99.90
20560;DHT22;10438;51.454;6.718;2023-08-08T10:16:17;18.60;99.90
20560;DHT22;10438;51.454;6.718;2023-08-08T10:18:54;18.70;99.90
20560;DHT22;10438;51.454;6.718;2023-08-08T10:21:24;18.70;99.90
20560;DHT22;10438;51.454;6.718;2023-08-08T10:24:00;18.70;99.90
20560;DHT22;10438;51.454;6.718;2023-08-08T10:26:25;18.80;99.90
20560;DHT22;10438;51.454;6.718;2023-08-08T10:28:55;18.80;99.90
20560;DHT22;10438;51.454;6.718;2023-08-08T10:31:22;18.90;99.90
20560;DHT22;10438;51.454;6.718;2023-08-08T10:33:48;19.20;99.90
20560;DHT22;10438;51.454;6.718;2023-08-08T10:36:14;19.50;99.90
20560;DHT22;10438;51.454;6.718;2023-08-08T10:38:44;19.60;99.90
20560;DHT22;10438;51.454;6.718;2023-08-08T10:41:13;19.70;99.90
20560;DHT22;10438;51.454;6.718;2023-08-08T10:43:50;19.60;99.90
20560;DHT22;10438;51.454;6.718;2023-08-08T10:46:30;19.50;99.90
20560;DHT22;10438;51.454;6.718;2023-08-08T10:49:00;19.40;99.90
20560;DHT22;10438;51.454;6.718;2023-08-08T10:51:42;19.10;99.90
20560;DHT22;10438;51.454;6.718;2023-08-08T10:54:13;18.60;99.90
20560;DHT22;10438;51.454;6.718;2023-08-08T10:56:39;18.40;99.90
20560;DHT22;10438;51.454;6.718;2023-08-08T10:59:17;18.30;99.90
20560;DHT22;10438;51.454;6.718;2023-08-08T11:01:46;18.20;99.90
20560;DHT22;10438;51.454;6.718;2023-08-08T11:04:12;18.10;99.90
20560;DHT22;10438;51.454;6.718;2023-08-08T11:06:37;17.90;99.90
20560;DHT22;10438;51.454;6.718;2023-08-08T11:09:06;17.90;99.90
20560;DHT22;10438;51.454;6.718;2023-08-08T11:11:39;17.90;99.90
20560;DHT22;10438;51.454;6.718;2023-08-08T11:16:37;18.70;99.90
20560;DHT22;10438;51.454;6.718;2023-08-08T11:19:03;19.20;99.90
20560;DHT22;10438;51.454;6.718;2023-08-08T11:21:29;19.50;99.90
20560;DHT22;10438;51.454;6.718;2023-08-08T11:23:55;19.90;99.90
20560;DHT22;10438;51.454;6.718;2023-08-08T11:26:20;19.70;99.90
20560;DHT22;10438;51.454;6.718;2023-08-08T11:28:52;19.70;99.90
20560;DHT22;10438;51.454;6.718;2023-08-08T11:31:19;19.80;99.90
20560;DHT22;10438;51.454;6.718;2023-08-08T11:33:47;20.00;99.90
20560;DHT22;10438;51.454;6.718;2023-08-08T11:36:14;20.10;99.90
20560;DHT22;10438;51.454;6.718;2023-08-08T11:38:40;19.90;99.90
20560;DHT22;10438;51.454;6.718;2023-08-08T11:41:09;19.80;99.90
20560;DHT22;10438;51.454;6.718;2023-08-08T11:43:37;19.80;99.90
20560;DHT22;10438;51.454;6.718;2023-08-08T11:46:03;19.80;99.90
20560;DHT22;10438;51.454;6.718;2023-08-08T11:48:28;19.90;99.90
20560;DHT22;10438;51.454;6.718;2023-08-08T11:50:54;19.80;99.90
20560;DHT22;10438;51.454;6.718;2023-08-08T11:53:20;19.90;99.90
20560;DHT22;10438;51.454;6.718;2023-08-08T11:55:46;19.60;99.90
20560;DHT22;10438;51.454;6.718;2023-08-08T11:58:14;19.80;99.90
20560;DHT22;10438;51.454;6.718;2023-08-08T12:00:42;19.80;99.90
20560;DHT22;10438;51.454;6.718;2023-08-08T12:03:11;19.70;99.90
20560;DHT22;10438;51.454;6.718;2023-08-08T12:05:39;19.50;99.90
20560;DHT22;10438;51.454;6.718;2023-08-08T12:08:08;19.40;99.90
20560;DHT22;10438;51.454;6.718;2023-08-08T12:10:35;19.30;99.90
20560;DHT22;10438;51.454;6.718;2023-08-08T12:13:01;19.60;99.90
20560;DHT22;10438;51.454;6.718;2023-08-08T12:15:33;19.70;99.90
20560;DHT22;10438;51.454;6.718;2023-08-08T12:18:01;20.00;99.90
20560;DHT22;10438;51.454;6.718;2023-08-08T12:20:28;20.40;99.90
20560;DHT22;10438;51.454;6.718;2023-08-08T12:22:55;20.70;99.90
20560;DHT22;10438;51.454;6.718;2023-08-08T12:25:20;20.60;99.90
20560;DHT22;10438;51.454;6.718;2023-08-08T12:27:46;20.20;99.90
20560;DHT22;10438;51.454;6.718;2023-08-08T12:30:12;19.80;99.90
20560;DHT22;10438;51.454;6.718;2023-08-08T12:32:37;19.30;99.90
20560;DHT22;10438;51.454;6.718;2023-08-08T12:35:06;19.20;99.90
20560;DHT22;10438;51.454;6.718;2023-08-08T12:37:33;19.30;99.90
20560;DHT22;10438;51.454;6.718;2023-08-08T12:39:58;19.10;99.90
20560;DHT22;10438;51.454;6.718;2023-08-08T12:42:24;19.00;99.90
20560;DHT22;10438;51.454;6.718;2023-08-08T12:44:49;18.80;99.90
20560;DHT22;10438;51.454;6.718;2023-08-08T12:47:18;18.90;99.90
20560;DHT22;10438;51.454;6.718;2023-08-08T12:49:44;18.80;99.90
20560;DHT22;10438;51.454;6.718;2023-08-08T12:52:10;18.80;99.90
20560;DHT22;10438;51.454;6.718;2023-08-08T12:54:35;18.90;99.90
20560;DHT22;10438;51.454;6.718;2023-08-08T12:57:01;19.10;99.90
20560;DHT22;10438;51.454;6.718;2023-08-08T12:59:27;19.20;99.90
20560;DHT22;10438;51.454;6.718;2023-08-08T13:01:53;19.20;99.90
20560;DHT22;10438;51.454;6.718;2023-08-08T13:04:19;19.30;99.90
20560;DHT22;10438;51.454;6.718;2023-08-08T13:06:45;19.70;99.90
20560;DHT22;10438;51.454;6.718;2023-08-08T13:09:10;20.00;99.90
20560;DHT22;10438;51.454;6.718;2023-08-08T13:11:36;20.80;99.90
20560;DHT22;10438;51.454;6.718;2023-08-08T13:14:01;21.70;99.90
20560;DHT22;10438;51.454;6.718;2023-08-08T13:16:27;22.10;99.90
20560;DHT22;10438;51.454;6.718;2023-08-08T13:18:52;22.00;99.90
20560;DHT22;10438;51.454;6.718;2023-08-08T13:21:18;21.20;99.90
20560;DHT22;10438;51.454;6.718;2023-08-08T13:23:43;20.40;99.90
20560;DHT22;10438;51.454;6.718;2023-08-08T13:26:09;20.10;99.90
20560;DHT22;10438;51.454;6.718;2023-08-08T13:28:34;20.10;99.90
20560;DHT22;10438;51.454;6.718;2023-08-08T13:31:00;20.60;99.90
20560;DHT22;10438;51.454;6.718;2023-08-08T13:33:26;21.20;99.90
20560;DHT22;10438;51.454;6.718;2023-08-08T13:35:51;21.40;99.90
20560;DHT22;10438;51.454;6.718;2023-08-08T13:38:17;21.00;99.90
20560;DHT22;10438;51.454;6.718;2023-08-08T13:40:43;20.80;99.90
20560;DHT22;10438;51.454;6.718;2023-08-08T13:43:08;21.00;99.90
20560;DHT22;10438;51.454;6.718;2023-08-08T13:45:34;21.10;99.90
20560;DHT22;10438;51.454;6.718;2023-08-08T13:48:00;21.20;99.90
20560;DHT22;10438;51.454;6.718;2023-08-08T13:50:25;21.10;99.90
20560;DHT22;10438;51.454;6.718;2023-08-08T13:52:51;21.10;99.90
20560;DHT22;10438;51.454;6.718;2023-08-08T13:55:18;21.20;99.90
20560;DHT22;10438;51.454;6.718;2023-08-08T13:57:44;21.70;99.90
20560;DHT22;10438;51.454;6.718;2023-08-08T14:00:10;22.40;99.90
20560;DHT22;10438;51.454;6.718;2023-08-08T14:02:37;22.40;99.90
20560;DHT22;10438;51.454;6.718;2023-08-08T14:05:03;22.30;98.50
20560;DHT22;10438;51.454;6.718;2023-08-08T14:07:32;21.80;99.90
20560;DHT22;10438;51.454;6.718;2023-08-08T14:09:58;21.50;99.90
20560;DHT22;10438;51.454;6.718;2023-08-08T14:12:23;21.00;99.90
20560;DHT22;10438;51.454;6.718;2023-08-08T14:14:49;20.80;99.90
20560;DHT22;10438;51.454;6.718;2023-08-08T14:17:15;20.80;99.90
20560;DHT22;10438;51.454;6.718;2023-08-08T14:19:40;20.60;99.90
20560;DHT22;10438;51.454;6.718;2023-08-08T14:22:06;20.70;99.90
20560;DHT22;10438;51.454;6.718;2023-08-08T14:24:31;20.90;99.90
20560;DHT22;10438;51.454;6.718;2023-08-08T14:26:57;20.80;99.90
20560;DHT22;10438;51.454;6.718;2023-08-08T14:29:22;21.10;99.90
20560;DHT22;10438;51.454;6.718;2023-08-08T14:31:48;21.20;99.40
20560;DHT22;10438;51.454;6.718;2023-08-08T14:34:14;21.20;98.90
20560;DHT22;10438;51.454;6.718;2023-08-08T14:36:40;21.60;98.30
20560;DHT22;10438;51.454;6.718;2023-08-08T14:39:05;21.90;96.70
20560;DHT22;10438;51.454;6.718;2023-08-08T14:41:32;22.40;92.10
20560;DHT22;10438;51.454;6.718;2023-08-08T14:43:57;22.50;90.20
20560;DHT22;10438;51.454;6.718;2023-08-08T14:46:23;22.50;92.20
20560;DHT22;10438;51.454;6.718;2023-08-08T14:48:48;22.80;92.60
20560;DHT22;10438;51.454;6.718;2023-08-08T14:51:14;22.90;74.10
20560;DHT22;10438;51.454;6.718;2023-08-08T14:53:42;23.00;74.00
20560;DHT22;10438;51.454;6.718;2023-08-08T14:56:08;23.30;60.40
20560;DHT22;10438;51.454;6.718;2023-08-08T14:58:33;23.70;58.50
20560;DHT22;10438;51.454;6.718;2023-08-08T15:01:00;23.80;47.70
20560;DHT22;10438;51.454;6.718;2023-08-08T15:03:26;24.40;45.80
20560;DHT22;10438;51.454;6.718;2023-08-08T15:05:51;24.30;43.30
20560;DHT22;10438;51.454;6.718;2023-08-08T15:08:17;23.80;39.40
20560;DHT22;10438;51.454;6.718;2023-08-08T15:10:44;23.00;42.60
20560;DHT22;10438;51.454;6.718;2023-08-08T15:13:09;22.40;51.00
20560;DHT22;10438;51.454;6.718;2023-08-08T15:15:35;22.10;57.60
20560;DHT22;10438;51.454;6.718;2023-08-08T15:18:01;22.20;62.40
20560;DHT22;10438;51.454;6.718;2023-08-08T15:20:26;22.50;58.60
20560;DHT22;10438;51.454;6.718;2023-08-08T15:22:52;22.60;50.80
20560;DHT22;10438;51.454;6.718;2023-08-08T15:25:17;22.60;49.30
20560;DHT22;10438;51.454;6.718;2023-08-08T15:27:43;22.60;48.10